createdAt,value
2023-05-16T00:01:23.257Z,87.32
2023-05-16T00:03:52.400Z,87.04
2023-05-16T00:06:20.186Z,86.01
2023-05-16T00:08:48.112Z,86.04
2023-05-16T00:11:17.447Z,86.11
2023-05-16T00:13:47.772Z,86.35
2023-05-16T00:16:15.677Z,88.75
2023-05-16T00:18:45.754Z,89.02
2023-05-16T00:21:14.857Z,88.56
2023-05-16T00:23:43.163Z,88.03
2023-05-16T00:26:10.777Z,87.64
2023-05-16T00:28:41.652Z,89.43
2023-05-16T00:31:09.256Z,89.21
2023-05-16T00:33:37.073Z,89.04
2023-05-16T00:36:05.023Z,88.59
2023-05-16T00:38:34.177Z,87.70
2023-05-16T00:41:01.865Z,87.74
2023-05-16T00:43:29.942Z,86.92
2023-05-16T00:45:58.338Z,86.97
2023-05-16T00:48:26.417Z,86.78
2023-05-16T00:50:54.683Z,87.03
2023-05-16T00:53:24.169Z,86.84
2023-05-16T00:55:54.433Z,86.68
2023-05-16T00:58:23.784Z,85.87
2023-05-16T01:00:52.709Z,86.16
2023-05-16T01:03:21.259Z,85.77
2023-05-16T01:05:49.798Z,85.56
2023-05-16T01:08:17.463Z,84.60
2023-05-16T01:10:54.715Z,84.70
2023-05-16T01:13:32.621Z,84.97
2023-05-16T01:16:06.161Z,85.64
2023-05-16T01:18:42.696Z,86.44
2023-05-16T01:21:17.195Z,86.93
2023-05-16T01:23:52.930Z,87.25
2023-05-16T01:26:24.180Z,86.97
2023-05-16T01:28:53.352Z,87.01
2023-05-16T01:31:21.778Z,87.06
2023-05-16T01:33:49.973Z,87.32
2023-05-16T01:36:26.378Z,87.10
2023-05-16T01:39:03.507Z,87.30
2023-05-16T01:41:42.298Z,87.10
2023-05-16T01:44:19.512Z,87.11
2023-05-16T01:46:48.443Z,86.59
2023-05-16T01:49:21.454Z,86.69
2023-05-16T01:51:53.071Z,87.34
2023-05-16T01:54:22.884Z,87.05
2023-05-16T01:56:53.676Z,86.90
2023-05-16T01:59:22.995Z,86.79
2023-05-16T02:01:50.882Z,86.81
2023-05-16T02:04:18.883Z,86.21
2023-05-16T02:06:47.183Z,86.39
2023-05-16T02:09:17.730Z,85.60
2023-05-16T02:11:46.808Z,85.09
2023-05-16T02:14:15.817Z,84.89
2023-05-16T02:16:43.564Z,85.91
2023-05-16T02:19:11.215Z,85.87
2023-05-16T02:21:39.944Z,85.73
2023-05-16T02:24:07.664Z,86.22
2023-05-16T02:26:35.592Z,87.14
2023-05-16T02:29:03.402Z,86.74
2023-05-16T02:31:34.683Z,86.80
2023-05-16T02:34:03.255Z,87.18
2023-05-16T02:36:31.355Z,87.22
2023-05-16T02:38:59.069Z,87.06
2023-05-16T02:41:26.786Z,87.50
2023-05-16T02:43:54.670Z,88.11
2023-05-16T02:46:24.159Z,88.47
2023-05-16T02:48:53.684Z,88.35
2023-05-16T02:51:22.769Z,88.19
2023-05-16T02:53:51.039Z,88.24
2023-05-16T02:56:19.318Z,88.78
2023-05-16T02:58:49.336Z,89.05
2023-05-16T03:01:18.073Z,88.54
2023-05-16T03:03:46.241Z,88.94
2023-05-16T03:06:15.400Z,88.54
2023-05-16T03:08:43.246Z,88.23
2023-05-16T03:11:11.004Z,88.23
2023-05-16T03:13:38.649Z,88.74
2023-05-16T03:16:07.124Z,88.74
2023-05-16T03:18:36.677Z,89.28
2023-05-16T03:21:04.516Z,89.04
2023-05-16T03:23:33.762Z,89.01
2023-05-16T03:26:01.523Z,88.47
2023-05-16T03:28:29.267Z,88.32
2023-05-16T03:30:56.947Z,88.49
2023-05-16T03:33:24.720Z,88.23
2023-05-16T03:35:53.234Z,87.63
2023-05-16T03:38:21.533Z,87.07
2023-05-16T03:40:51.446Z,87.06
2023-05-16T03:43:19.044Z,87.00
2023-05-16T03:45:46.827Z,87.60
2023-05-16T03:48:14.718Z,87.65
2023-05-16T03:50:42.409Z,87.39
2023-05-16T03:53:10.771Z,87.26
2023-05-16T03:55:38.653Z,87.12
2023-05-16T03:58:07.845Z,86.85
2023-05-16T04:00:37.166Z,85.99
2023-05-16T04:03:05.098Z,85.13
2023-05-16T04:05:32.997Z,85.89
2023-05-16T04:08:00.680Z,85.44
2023-05-16T04:10:28.511Z,85.51
2023-05-16T04:12:56.121Z,85.24
2023-05-16T04:15:25.288Z,85.53
2023-05-16T04:17:53.113Z,85.15
2023-05-16T04:20:21.255Z,85.80
2023-05-16T04:22:49.184Z,86.08
2023-05-16T04:25:17.146Z,86.91
2023-05-16T04:27:45.135Z,86.56
2023-05-16T04:30:14.151Z,87.13
2023-05-16T04:32:43.385Z,87.19
2023-05-16T04:35:11.384Z,87.26
2023-05-16T04:37:39.368Z,87.09
2023-05-16T04:40:09.827Z,86.83
2023-05-16T04:42:37.741Z,86.94
2023-05-16T04:45:06.729Z,86.94
2023-05-16T04:47:35.117Z,86.72
2023-05-16T04:50:04.579Z,87.09
2023-05-16T04:52:32.298Z,86.54
2023-05-16T04:55:00.485Z,86.46
2023-05-16T04:57:28.365Z,86.80
2023-05-16T04:59:56.401Z,86.67
2023-05-16T05:02:24.338Z,85.82
2023-05-16T05:04:52.352Z,86.83
2023-05-16T05:07:21.369Z,86.73
2023-05-16T05:09:48.988Z,86.93
2023-05-16T05:12:16.929Z,87.17
2023-05-16T05:14:44.667Z,87.15
2023-05-16T05:17:12.570Z,88.20
2023-05-16T05:19:40.319Z,88.26
2023-05-16T05:22:07.961Z,88.60
2023-05-16T05:24:37.085Z,88.67
2023-05-16T05:27:06.139Z,88.73
2023-05-16T05:29:33.890Z,88.38
2023-05-16T05:32:01.644Z,87.97
2023-05-16T05:34:29.552Z,87.42
2023-05-16T05:36:57.544Z,87.63
2023-05-16T05:39:25.534Z,87.63
2023-05-16T05:41:54.479Z,87.44
2023-05-16T05:44:22.293Z,87.30
2023-05-16T05:46:49.941Z,86.85
2023-05-16T05:49:17.693Z,87.29
2023-05-16T05:51:45.303Z,87.55
2023-05-16T05:54:13.437Z,86.91
2023-05-16T05:56:41.055Z,86.90
2023-05-16T05:59:10.134Z,86.65
2023-05-16T06:01:37.766Z,85.01
2023-05-16T06:04:05.888Z,84.28
2023-05-16T06:06:33.630Z,84.44
2023-05-16T06:09:01.237Z,83.54
2023-05-16T06:11:28.979Z,83.16
2023-05-16T06:13:56.624Z,82.21
2023-05-16T06:16:27.442Z,81.69
2023-05-16T06:18:55.141Z,79.41
2023-05-16T06:21:22.962Z,78.35
2023-05-16T06:23:50.752Z,77.92
2023-05-16T06:26:18.651Z,77.78
2023-05-16T06:28:46.241Z,78.66
2023-05-16T06:31:14.432Z,78.67
2023-05-16T06:33:43.463Z,78.81
2023-05-16T06:36:11.598Z,79.00
2023-05-16T06:38:39.194Z,78.87
2023-05-16T06:41:06.856Z,79.22
2023-05-16T06:43:34.511Z,79.25
2023-05-16T06:46:02.206Z,79.10
2023-05-16T06:48:30.206Z,79.43
2023-05-16T06:50:59.324Z,79.68
2023-05-16T06:53:27.340Z,79.32
2023-05-16T06:55:55.080Z,79.34
2023-05-16T06:58:22.715Z,79.53
2023-05-16T07:00:50.640Z,79.29
2023-05-16T07:03:18.628Z,79.23
2023-05-16T07:05:46.409Z,78.63
2023-05-16T07:08:15.438Z,78.60
2023-05-16T07:10:43.072Z,78.53
2023-05-16T07:13:10.898Z,78.36
2023-05-16T07:15:38.701Z,77.68
2023-05-16T07:18:06.532Z,77.18
2023-05-16T07:20:34.284Z,76.45
2023-05-16T07:23:02.048Z,76.17
2023-05-16T07:25:31.127Z,76.32
2023-05-16T07:27:59.127Z,74.42
2023-05-16T07:30:27.124Z,74.71
2023-05-16T07:32:54.876Z,75.31
2023-05-16T07:35:22.723Z,75.30
2023-05-16T07:37:51.367Z,74.33
2023-05-16T07:40:21.311Z,73.63
2023-05-16T07:42:50.431Z,72.08
2023-05-16T07:45:18.361Z,73.17
2023-05-16T07:47:46.411Z,72.46
2023-05-16T07:50:14.210Z,73.01
2023-05-16T07:52:41.902Z,72.52
2023-05-16T07:55:10.629Z,72.42
2023-05-16T07:57:38.320Z,72.31
2023-05-16T08:00:09.687Z,72.29
2023-05-16T08:02:40.137Z,71.90
2023-05-16T08:05:09.132Z,72.16
2023-05-16T08:07:36.788Z,71.81
2023-05-16T08:10:04.803Z,72.00
2023-05-16T08:12:32.498Z,72.76
2023-05-16T08:15:00.498Z,72.62
2023-05-16T08:17:29.607Z,72.74
2023-05-16T08:19:59.199Z,72.70
2023-05-16T08:22:26.977Z,72.55
2023-05-16T08:24:57.711Z,72.02
2023-05-16T08:27:25.511Z,70.16
2023-05-16T08:29:53.508Z,70.79
2023-05-16T08:32:22.203Z,71.14
2023-05-16T08:34:51.213Z,71.20
2023-05-16T08:37:19.181Z,71.15
2023-05-16T08:39:47.007Z,71.52
2023-05-16T08:42:14.765Z,70.96
2023-05-16T08:44:42.417Z,70.52
2023-05-16T08:47:14.803Z,70.22
2023-05-16T08:49:42.916Z,69.67
2023-05-16T08:52:13.320Z,69.93
2023-05-16T08:54:42.138Z,69.71
2023-05-16T08:57:10.861Z,69.37
2023-05-16T08:59:38.894Z,69.04
2023-05-16T09:02:07.293Z,69.06
2023-05-16T09:04:35.219Z,68.73
2023-05-16T09:07:03.033Z,68.61
2023-05-16T09:09:32.053Z,68.21
2023-05-16T09:11:59.882Z,68.26
2023-05-16T09:14:27.500Z,68.31
2023-05-16T09:17:05.161Z,69.18
2023-05-16T09:19:40.413Z,69.86
2023-05-16T09:22:10.097Z,70.00
2023-05-16T09:24:41.031Z,70.41
2023-05-16T09:27:09.487Z,70.14
2023-05-16T09:29:37.523Z,70.39
2023-05-16T09:32:11.941Z,69.08
2023-05-16T09:34:43.033Z,69.39
2023-05-16T09:37:11.238Z,68.29
2023-05-16T09:39:47.598Z,68.58
2023-05-16T09:42:15.799Z,67.41
2023-05-16T09:44:48.120Z,66.71
2023-05-16T09:47:16.476Z,66.13
2023-05-16T09:49:45.439Z,66.22
2023-05-16T09:52:14.040Z,66.24
2023-05-16T09:54:43.424Z,66.72
2023-05-16T09:57:11.486Z,66.63
2023-05-16T09:59:40.570Z,66.51
2023-05-16T10:02:08.847Z,67.07
2023-05-16T10:04:36.681Z,67.66
2023-05-16T10:07:05.415Z,67.59
2023-05-16T10:09:34.505Z,68.38
2023-05-16T10:12:06.475Z,68.24
2023-05-16T10:14:36.559Z,68.83
2023-05-16T10:17:06.692Z,68.63
2023-05-16T10:19:38.507Z,69.84
2023-05-16T10:22:07.581Z,70.11
2023-05-16T10:24:40.454Z,70.29
2023-05-16T10:27:10.917Z,70.47
2023-05-16T10:29:50.427Z,70.00
2023-05-16T10:32:24.734Z,70.39
2023-05-16T10:34:53.160Z,70.98
2023-05-16T10:37:20.829Z,70.56
2023-05-16T10:39:49.660Z,70.72
2023-05-16T10:42:20.589Z,70.56
2023-05-16T10:45:01.924Z,71.13
2023-05-16T10:47:33.004Z,70.14
2023-05-16T10:50:01.035Z,70.18
2023-05-16T10:52:34.722Z,70.73
2023-05-16T10:55:04.717Z,71.15
2023-05-16T10:57:36.478Z,71.52
2023-05-16T11:00:09.461Z,71.86
2023-05-16T11:02:42.914Z,72.58
2023-05-16T11:05:15.169Z,72.87
2023-05-16T11:07:42.828Z,73.04
2023-05-16T11:10:11.754Z,73.21
2023-05-16T11:12:52.444Z,73.34
2023-05-16T11:15:22.266Z,74.08
2023-05-16T11:17:50.073Z,74.44
2023-05-16T11:20:27.275Z,74.81
2023-05-16T11:23:20.656Z,75.18
2023-05-16T11:25:51.001Z,76.08
2023-05-16T11:28:20.807Z,76.85
2023-05-16T11:30:51.121Z,77.44
2023-05-16T11:33:19.795Z,78.15
2023-05-16T11:36:14.606Z,79.01
2023-05-16T11:38:44.414Z,79.61
2023-05-16T11:41:12.341Z,80.72
2023-05-16T11:43:43.360Z,80.51
2023-05-16T11:46:12.945Z,80.91
2023-05-16T11:48:41.287Z,79.61
2023-05-16T11:51:10.606Z,78.07
2023-05-16T11:53:39.655Z,78.36
2023-05-16T11:56:09.162Z,78.40
2023-05-16T11:58:38.361Z,78.32
2023-05-16T12:01:08.266Z,78.25
2023-05-16T12:03:37.053Z,78.56
2023-05-16T12:06:05.941Z,78.41
2023-05-16T12:08:33.662Z,78.39
2023-05-16T12:11:01.592Z,78.27
2023-05-16T12:13:29.437Z,78.45
2023-05-16T12:15:57.347Z,78.54
2023-05-16T12:18:26.556Z,78.72
2023-05-16T12:20:54.407Z,78.59
2023-05-16T12:23:22.167Z,78.23
2023-05-16T12:25:49.976Z,78.42
2023-05-16T12:28:17.707Z,78.42
2023-05-16T12:30:48.019Z,78.70
2023-05-16T12:33:17.338Z,78.52
2023-05-16T12:35:48.100Z,78.27
2023-05-16T12:38:17.510Z,78.45
2023-05-16T12:40:47.475Z,78.98
2023-05-16T12:43:16.166Z,78.80
2023-05-16T12:45:44.557Z,79.28
2023-05-16T12:48:14.219Z,80.09
2023-05-16T12:50:42.936Z,81.39
2023-05-16T12:53:14.931Z,82.73
2023-05-16T12:55:43.931Z,82.91
2023-05-16T12:58:12.786Z,83.35
2023-05-16T13:00:40.588Z,81.29
2023-05-16T13:03:08.798Z,82.28
2023-05-16T13:05:36.935Z,82.66
2023-05-16T13:08:05.254Z,82.94
2023-05-16T13:10:34.360Z,83.66
2023-05-16T13:13:02.597Z,82.15
2023-05-16T13:15:30.448Z,81.64
2023-05-16T13:17:59.107Z,81.60
2023-05-16T13:20:26.976Z,80.39
2023-05-16T13:22:55.874Z,80.42
2023-05-16T13:25:23.490Z,79.58
2023-05-16T13:27:52.667Z,80.55
2023-05-16T13:30:22.422Z,80.53
2023-05-16T13:32:50.443Z,79.25
2023-05-16T13:35:18.168Z,78.81
2023-05-16T13:37:46.421Z,78.60
2023-05-16T13:40:14.278Z,78.88
2023-05-16T13:42:42.038Z,79.07
2023-05-16T13:45:11.257Z,78.95
2023-05-16T13:47:39.089Z,79.04
2023-05-16T13:50:10.298Z,78.86
2023-05-16T13:52:38.495Z,79.33
2023-05-16T13:55:07.220Z,79.04
2023-05-16T13:57:34.913Z,79.27
2023-05-16T14:00:31.176Z,78.88
2023-05-16T14:02:54.296Z,79.15
2023-05-16T14:05:22.437Z,80.85
2023-05-16T14:07:50.453Z,81.78
2023-05-16T14:10:18.329Z,82.31
2023-05-16T14:12:46.231Z,82.86
2023-05-16T14:15:13.878Z,82.76
2023-05-16T14:17:41.613Z,82.46
2023-05-16T14:20:11.929Z,82.37
2023-05-16T14:22:39.678Z,82.36
2023-05-16T14:25:08.517Z,82.48
2023-05-16T14:27:36.442Z,82.86
2023-05-16T14:30:04.829Z,82.42
2023-05-16T14:32:32.891Z,82.69
2023-05-16T14:35:00.636Z,83.07
2023-05-16T14:37:29.635Z,82.76
2023-05-16T14:39:57.343Z,82.31
2023-05-16T14:42:24.989Z,82.43
2023-05-16T14:44:52.688Z,82.42
2023-05-16T14:47:20.466Z,83.18
2023-05-16T14:49:48.318Z,82.60
2023-05-16T14:52:16.373Z,82.59
2023-05-16T14:54:45.392Z,82.69
2023-05-16T14:57:13.082Z,82.55
2023-05-16T14:59:40.893Z,82.54
2023-05-16T15:02:08.680Z,81.86
2023-05-16T15:04:38.721Z,82.27
2023-05-16T15:07:07.368Z,82.21
2023-05-16T15:09:35.234Z,81.68
2023-05-16T15:12:04.737Z,81.27
2023-05-16T15:14:32.577Z,81.50
2023-05-16T15:17:00.458Z,80.73
2023-05-16T15:19:28.520Z,80.85
2023-05-16T15:21:56.296Z,81.01
2023-05-16T15:24:24.386Z,80.92
2023-05-16T15:26:52.069Z,80.30
2023-05-16T15:29:21.322Z,80.26
2023-05-16T15:31:48.989Z,80.00
2023-05-16T15:34:16.652Z,80.50
2023-05-16T15:36:44.290Z,80.66
2023-05-16T15:39:12.049Z,80.79
2023-05-16T15:42:01.066Z,80.67
2023-05-16T15:44:28.842Z,80.46
2023-05-16T15:46:56.660Z,80.41
2023-05-16T15:49:24.427Z,80.55
2023-05-16T15:51:52.598Z,80.95
2023-05-16T15:54:20.796Z,80.97
2023-05-16T15:56:48.588Z,81.30
2023-05-16T15:59:17.361Z,81.58
2023-05-16T16:01:46.608Z,82.09
2023-05-16T16:04:14.314Z,82.28
2023-05-16T16:06:42.384Z,82.10
2023-05-16T16:09:11.079Z,82.11
2023-05-16T16:11:39.184Z,82.93
2023-05-16T16:14:08.521Z,82.89
2023-05-16T16:16:37.331Z,82.95
2023-05-16T16:19:06.472Z,83.00
2023-05-16T16:21:34.700Z,83.17
2023-05-16T16:24:02.360Z,83.31
2023-05-16T16:26:31.930Z,84.11
2023-05-16T16:28:59.692Z,85.66
2023-05-16T16:31:27.639Z,84.60
2023-05-16T16:33:55.391Z,84.72
2023-05-16T16:36:24.603Z,84.90
2023-05-16T16:38:52.391Z,84.39
2023-05-16T16:41:20.208Z,84.34
2023-05-16T16:43:47.955Z,84.51
2023-05-16T16:46:15.699Z,84.67
2023-05-16T16:48:43.641Z,84.86
2023-05-16T16:51:11.274Z,85.02
2023-05-16T16:53:41.193Z,85.14
2023-05-16T16:56:08.872Z,85.34
2023-05-16T16:58:36.950Z,85.27
2023-05-16T17:01:04.976Z,85.32
2023-05-16T17:03:32.882Z,85.14
2023-05-16T17:06:00.630Z,85.22
2023-05-16T17:08:28.444Z,85.16
2023-05-16T17:10:57.436Z,85.33
2023-05-16T17:13:25.349Z,85.16
2023-05-16T17:15:53.143Z,85.44
2023-05-16T17:18:21.904Z,85.10
2023-05-16T17:20:49.615Z,85.24
2023-05-16T17:23:17.262Z,84.89
2023-05-16T17:25:45.330Z,84.72
2023-05-16T17:28:14.437Z,84.91
2023-05-16T17:30:42.783Z,85.41
2023-05-16T17:33:10.501Z,85.16
2023-05-16T17:35:38.535Z,85.07
2023-05-16T17:38:06.221Z,85.48
2023-05-16T17:40:34.021Z,85.34
2023-05-16T17:43:01.712Z,85.36
2023-05-16T17:45:31.246Z,85.57
2023-05-16T17:47:59.173Z,85.73
2023-05-16T17:50:26.893Z,85.43
2023-05-16T17:52:54.604Z,85.47
2023-05-16T17:55:23.106Z,85.61
2023-05-16T17:57:50.840Z,85.07
2023-05-16T18:00:19.542Z,85.39
2023-05-16T18:02:49.312Z,85.43
2023-05-16T18:05:17.430Z,85.60
2023-05-16T18:07:45.323Z,85.97
2023-05-16T18:10:13.659Z,86.15
2023-05-16T18:12:41.954Z,86.08
2023-05-16T18:15:10.765Z,86.30
2023-05-16T18:17:38.857Z,86.25
2023-05-16T18:20:12.283Z,86.10
2023-05-16T18:22:40.758Z,86.32
2023-05-16T18:25:10.615Z,86.01
2023-05-16T18:27:38.632Z,85.89
2023-05-16T18:30:08.374Z,86.19
2023-05-16T18:32:36.961Z,85.76
2023-05-16T18:35:04.869Z,85.95
2023-05-16T18:37:34.096Z,86.05
2023-05-16T18:40:01.800Z,86.23
2023-05-16T18:42:30.122Z,86.04
2023-05-16T18:44:57.781Z,85.96
2023-05-16T18:47:25.783Z,85.83
2023-05-16T18:49:54.605Z,86.04
2023-05-16T18:52:22.402Z,86.27
2023-05-16T18:54:51.452Z,86.11
2023-05-16T18:57:19.118Z,86.33
2023-05-16T18:59:46.953Z,86.67
2023-05-16T19:02:14.610Z,86.42
2023-05-16T19:04:42.487Z,86.97
2023-05-16T19:07:10.225Z,87.04
2023-05-16T19:09:37.891Z,86.83
2023-05-16T19:12:07.546Z,87.13
2023-05-16T19:14:35.350Z,87.06
2023-05-16T19:17:03.785Z,87.23
2023-05-16T19:19:32.432Z,86.87
2023-05-16T19:22:00.209Z,86.93
2023-05-16T19:24:28.123Z,86.60
2023-05-16T19:26:55.778Z,86.64
2023-05-16T19:29:25.044Z,86.06
2023-05-16T19:31:52.704Z,86.01
2023-05-16T19:34:21.251Z,86.14
2023-05-16T19:36:48.911Z,85.81
2023-05-16T19:39:16.677Z,85.77
2023-05-16T19:41:44.520Z,85.97
2023-05-16T19:44:12.641Z,86.10
2023-05-16T19:46:41.633Z,86.28
2023-05-16T19:49:10.746Z,86.33
2023-05-16T19:51:41.735Z,86.11
2023-05-16T19:54:10.083Z,85.76
2023-05-16T19:56:37.894Z,85.59
2023-05-16T19:59:05.546Z,85.58
2023-05-16T20:01:33.375Z,86.01
2023-05-16T20:04:02.533Z,86.08
2023-05-16T20:06:31.522Z,85.91
2023-05-16T20:08:59.229Z,86.29
2023-05-16T20:11:27.166Z,85.96
2023-05-16T20:13:55.622Z,85.80
2023-05-16T20:16:23.412Z,85.67
2023-05-16T20:18:51.493Z,85.84
2023-05-16T20:21:20.640Z,86.16
2023-05-16T20:23:48.407Z,85.93
2023-05-16T20:26:16.138Z,85.92
2023-05-16T20:28:43.923Z,85.64
2023-05-16T20:31:11.600Z,85.61
2023-05-16T20:33:39.553Z,85.59
2023-05-16T20:36:07.422Z,85.64
2023-05-16T20:38:38.131Z,85.52
2023-05-16T20:41:05.818Z,85.46
2023-05-16T20:43:33.653Z,85.54
2023-05-16T20:46:01.319Z,85.38
2023-05-16T20:48:29.069Z,85.31
2023-05-16T20:50:57.015Z,85.17
2023-05-16T20:53:24.863Z,84.84
2023-05-16T20:55:53.857Z,84.76
2023-05-16T20:58:21.633Z,84.76
2023-05-16T21:00:49.447Z,84.76
2023-05-16T21:03:17.102Z,85.07
2023-05-16T21:05:44.853Z,84.99
2023-05-16T21:08:12.587Z,85.02
2023-05-16T21:10:40.514Z,84.88
2023-05-16T21:13:09.548Z,84.89
2023-05-16T21:15:38.452Z,84.84
2023-05-16T21:18:06.338Z,84.58
2023-05-16T21:20:34.410Z,84.86
2023-05-16T21:23:02.086Z,85.13
2023-05-16T21:25:30.028Z,85.13
2023-05-16T21:27:58.326Z,85.32
2023-05-16T21:30:27.463Z,85.12
2023-05-16T21:32:55.142Z,85.04
2023-05-16T21:35:22.861Z,85.33
2023-05-16T21:37:50.596Z,85.23
2023-05-16T21:40:24.878Z,85.70
2023-05-16T21:42:53.209Z,85.81
2023-05-16T21:45:21.167Z,85.55
2023-05-16T21:47:50.469Z,85.60
2023-05-16T21:50:18.501Z,85.45
2023-05-16T21:52:46.178Z,85.84
2023-05-16T21:55:14.181Z,85.77
2023-05-16T21:57:41.986Z,86.09
2023-05-16T22:00:10.680Z,86.34
2023-05-16T22:02:38.858Z,86.55
2023-05-16T22:05:09.295Z,86.51
2023-05-16T22:07:37.570Z,86.24
2023-05-16T22:10:07.311Z,86.61
2023-05-16T22:12:35.021Z,86.71
2023-05-16T22:15:02.767Z,86.51
2023-05-16T22:17:30.633Z,86.41
2023-05-16T22:19:58.380Z,86.19
2023-05-16T22:22:27.451Z,86.28
2023-05-16T22:24:55.173Z,86.54
2023-05-16T22:27:22.830Z,86.42
2023-05-16T22:29:50.735Z,86.39
2023-05-16T22:32:18.374Z,86.21
2023-05-16T22:34:46.153Z,86.03
2023-05-16T22:37:13.782Z,86.24
2023-05-16T22:39:42.967Z,86.10
2023-05-16T22:42:10.649Z,86.02
2023-05-16T22:44:38.334Z,85.60
2023-05-16T22:47:06.667Z,85.95
2023-05-16T22:49:34.433Z,85.52
2023-05-16T22:52:02.109Z,85.33
2023-05-16T22:54:29.894Z,85.57
2023-05-16T22:56:58.888Z,85.48
2023-05-16T22:59:26.620Z,85.40
2023-05-16T23:01:54.297Z,85.28
2023-05-16T23:04:21.965Z,84.97
2023-05-16T23:06:50.040Z,85.43
2023-05-16T23:09:17.683Z,85.57
2023-05-16T23:11:45.787Z,85.73
2023-05-16T23:14:14.755Z,85.45
2023-05-16T23:16:42.523Z,85.73
2023-05-16T23:19:10.383Z,85.46
2023-05-16T23:21:40.017Z,85.44
2023-05-16T23:24:08.230Z,85.38
2023-05-16T23:26:36.294Z,85.26
2023-05-16T23:29:04.091Z,85.00
2023-05-16T23:31:33.376Z,85.10
2023-05-16T23:34:01.121Z,85.11
2023-05-16T23:36:28.980Z,84.94
2023-05-16T23:38:56.734Z,85.01
2023-05-16T23:41:24.408Z,85.03
2023-05-16T23:43:52.162Z,85.21
2023-05-16T23:46:19.795Z,85.30
2023-05-16T23:48:49.007Z,85.02
2023-05-16T23:51:16.696Z,84.80
2023-05-16T23:53:44.563Z,85.22
2023-05-16T23:56:12.606Z,85.42
2023-05-16T23:58:40.263Z,85.09
